Time;durP1;ratioP1;P1;durP2;ratioP2;P2;SDS_P1;SDS_P2;PMS_P1;PMS_P2;Temp;Humidity;BMP_temperature;BMP_pressure;BME280_temperature;BME280_humidity;BME280_pressure;Samples;Min_cycle;Max_cycle;Signal;HPM_P1;HPM_P2
2022/05/06 00:02:20;;;;;;;5.67;4.75;;;;;;;22.22;54.83;99070.15;1766226;81;25820;-86
2022/05/06 00:04:46;;;;;;;6.78;5.20;;;;;;;22.22;54.87;99072.94;1766296;81;25454;-86
2022/05/06 00:07:12;;;;;;;7.17;4.83;;;;;;;22.19;54.88;99073.91;1766214;81;26194;-86
2022/05/06 00:09:42;;;;;;;7.35;5.20;;;;;;;22.18;54.90;99071.50;1766503;81;25706;-86
2022/05/06 00:12:12;;;;;;;5.80;4.87;;;;;;;22.17;54.86;99076.88;1766163;81;32762;-86
2022/05/06 00:14:38;;;;;;;6.58;4.90;;;;;;;22.15;55.01;99079.23;1766092;81;25450;-86
2022/05/06 00:17:06;;;;;;;6.78;5.08;;;;;;;22.16;54.86;99071.87;1766463;81;25721;-86
2022/05/06 00:19:33;;;;;;;6.97;4.85;;;;;;;22.14;54.87;99074.23;1766228;81;25708;-88
2022/05/06 00:21:59;;;;;;;7.80;4.95;;;;;;;22.13;54.90;99070.47;1766256;81;25660;-87
2022/05/06 00:24:25;;;;;;;6.58;4.80;;;;;;;22.13;54.90;99074.03;1766384;81;27366;-87
2022/05/06 00:26:51;;;;;;;6.12;4.87;;;;;;;22.12;54.89;99081.40;1766160;81;25646;-87
2022/05/06 00:29:17;;;;;;;7.25;5.28;;;;;;;22.11;54.90;99078.41;1766380;81;25685;-88
2022/05/06 00:31:43;;;;;;;6.87;5.00;;;;;;;22.10;54.91;99074.80;1766429;81;25448;-87
2022/05/06 00:34:10;;;;;;;6.05;5.12;;;;;;;22.10;54.89;99082.39;1766373;81;25488;-88
2022/05/06 00:36:36;;;;;;;6.53;5.03;;;;;;;22.09;54.90;99079.37;1766057;81;28519;-88
2022/05/06 00:39:03;;;;;;;7.22;5.25;;;;;;;22.07;54.90;99069.98;1766327;81;25649;-87
2022/05/06 00:41:35;;;;;;;5.80;5.05;;;;;;;22.08;54.91;99070.80;1766278;81;25527;-87
2022/05/06 00:44:02;;;;;;;6.40;5.20;;;;;;;22.08;54.93;99074.40;1766312;81;25456;-87
2022/05/06 00:46:28;;;;;;;6.03;4.85;;;;;;;22.08;54.89;99066.03;1766256;81;25785;-87
2022/05/06 00:48:57;;;;;;;5.97;5.28;;;;;;;22.08;54.91;99062.42;1782215;80;27581;-86
2022/05/06 00:51:24;;;;;;;6.58;5.15;;;;;;;22.08;54.87;99065.22;1785318;80;25657;-87
2022/05/06 00:53:53;;;;;;;6.58;5.53;;;;;;;22.06;54.87;99071.18;1785561;80;25608;-87
2022/05/06 00:56:24;;;;;;;6.83;5.37;;;;;;;22.05;54.91;99082.92;1785621;79;25685;-87
2022/05/06 00:58:48;;;;;;;7.15;5.25;;;;;;;22.05;54.87;99082.14;1784778;80;25635;-86
2022/05/06 01:01:14;;;;;;;6.47;5.22;;;;;;;22.05;54.86;99084.93;1785439;79;28184;-87
2022/05/06 01:03:40;;;;;;;7.25;5.28;;;;;;;22.04;54.87;99078.53;1785067;79;25603;-88
2022/05/06 01:06:16;;;;;;;5.83;4.70;;;;;;;22.03;54.87;99082.52;1785541;79;25632;-87
2022/05/06 01:08:44;;;;;;;6.90;5.45;;;;;;;22.03;54.86;99082.52;1785166;80;26205;-87
2022/05/06 01:11:13;;;;;;;5.80;5.03;;;;;;;22.01;54.90;99084.88;1785485;80;25656;-87
2022/05/06 01:13:45;;;;;;;6.17;5.15;;;;;;;22.01;54.89;99085.46;1785330;79;27421;-87
2022/05/06 01:16:12;;;;;;;7.72;5.28;;;;;;;22.00;54.84;99089.45;1785441;80;25691;-86
2022/05/06 01:18:39;;;;;;;6.92;5.67;;;;;;;21.98;54.90;99088.43;1785486;80;25472;-88
2022/05/06 01:21:06;;;;;;;6.75;5.60;;;;;;;21.97;54.91;99096.59;1785594;79;25474;-87
2022/05/06 01:23:34;;;;;;;6.55;5.00;;;;;;;21.98;54.88;99091.80;1785674;80;25562;-88
2022/05/06 01:26:01;;;;;;;6.10;4.92;;;;;;;21.97;54.88;99085.44;1785190;80;27495;-88
2022/05/06 01:28:29;;;;;;;6.45;5.00;;;;;;;21.98;54.88;99086.22;1785123;80;25504;-87
2022/05/06 01:31:04;;;;;;;6.42;5.67;;;;;;;21.97;54.86;99089.62;1785972;80;25651;-88
2022/05/06 01:33:31;;;;;;;6.47;5.50;;;;;;;21.96;54.92;99084.42;1783263;80;25640;-88
2022/05/06 01:36:06;;;;;;;6.90;5.35;;;;;;;21.97;54.87;99092.41;1785748;79;25672;-86
2022/05/06 01:38:42;;;;;;;6.05;5.30;;;;;;;21.96;54.86;99094.19;1785649;79;27401;-86
2022/05/06 01:41:16;;;;;;;6.05;5.45;;;;;;;21.95;54.86;99097.56;1785397;80;25611;-87
2022/05/06 01:43:50;;;;;;;6.00;5.17;;;;;;;21.94;54.87;99103.72;1785529;80;25419;-87
2022/05/06 01:46:20;;;;;;;6.53;5.62;;;;;;;21.94;54.86;99098.75;1785414;80;26116;-86
2022/05/06 01:48:47;;;;;;;7.37;5.53;;;;;;;21.92;54.89;99103.31;1772230;80;25419;-87
2022/05/06 01:51:18;;;;;;;7.22;5.70;;;;;;;21.92;54.88;99097.73;1766220;81;27355;-86
2022/05/06 01:53:44;;;;;;;;;;;;;;;21.91;54.89;99101.69;1768943;81;25844;-87
2022/05/06 01:56:11;;;;;;;6.15;5.22;;;;;;;21.90;54.90;99105.67;1766396;81;25443;-86
2022/05/06 01:58:38;;;;;;;6.72;5.62;;;;;;;21.90;54.89;99109.05;1766407;81;25542;-86
2022/05/06 02:01:05;;;;;;;7.90;5.70;;;;;;;21.89;54.89;99125.59;1766143;81;25456;-86
2022/05/06 02:06:16;;;;;;;6.92;5.50;;;;;;;21.90;54.89;99129.39;1765959;81;25618;-86
2022/05/06 02:08:42;;;;;;;6.58;5.33;;;;;;;21.89;54.91;99134.77;1766512;81;25653;-86
2022/05/06 02:11:08;;;;;;;7.17;5.97;;;;;;;21.89;54.90;99143.72;1766295;81;26267;-86
2022/05/06 02:13:34;;;;;;;6.20;5.30;;;;;;;21.89;54.89;99137.56;1766475;81;25633;-88
2022/05/06 02:16:02;;;;;;;7.60;5.60;;;;;;;21.89;54.89;99138.95;1766077;81;28334;-86
2022/05/06 02:18:29;;;;;;;7.08;5.72;;;;;;;21.89;54.90;99140.93;1766021;81;25791;-86
2022/05/06 02:20:59;;;;;;;6.97;5.65;;;;;;;21.87;54.89;99134.91;1766388;81;25740;-86
2022/05/06 02:23:26;;;;;;;6.85;5.60;;;;;;;21.87;54.91;99137.13;1766320;81;25435;-86
2022/05/06 02:25:53;;;;;;;6.30;5.35;;;;;;;21.87;54.92;99130.15;1766282;81;25492;-86
2022/05/06 02:28:20;;;;;;;6.87;5.60;;;;;;;21.87;54.91;99125.15;1766447;81;27362;-86
2022/05/06 02:33:31;;;;;;;7.30;5.90;;;;;;;21.88;54.86;99117.80;1766076;81;25456;-86
2022/05/06 02:36:03;;;;;;;7.85;5.87;;;;;;;21.86;54.87;99113.79;1766099;81;26231;-86
2022/05/06 02:38:28;;;;;;;6.72;5.70;;;;;;;21.86;54.87;99111.81;1765327;81;25595;-86
2022/05/06 02:40:55;;;;;;;6.62;5.47;;;;;;;21.86;54.88;99115.19;1766353;81;28331;-86
2022/05/06 02:43:21;;;;;;;6.08;5.45;;;;;;;21.86;54.89;99127.16;1766275;81;25837;-86
2022/05/06 02:45:47;;;;;;;7.83;6.25;;;;;;;21.86;54.88;99124.37;1766431;81;25689;-86
2022/05/06 02:48:13;;;;;;;7.67;5.97;;;;;;;21.85;54.88;99124.74;1766254;80;25500;-86
2022/05/06 02:50:41;;;;;;;7.67;6.05;;;;;;;21.84;54.88;99123.93;1766400;81;25475;-86
2022/05/06 02:53:07;;;;;;;6.80;5.50;;;;;;;21.85;54.91;99123.34;1765999;81;28228;-86
2022/05/06 02:55:34;;;;;;;7.15;5.85;;;;;;;21.85;54.89;99113.59;1766390;81;25464;-86
2022/05/06 02:58:00;;;;;;;8.15;6.17;;;;;;;21.86;54.87;99118.79;1766496;81;25706;-87
2022/05/06 03:00:28;;;;;;;7.40;5.42;;;;;;;21.85;54.87;99110.22;1766492;81;26164;-86
2022/05/06 03:02:56;;;;;;;7.67;5.95;;;;;;;21.84;54.86;99122.53;1766183;81;25419;-87
2022/05/06 03:05:24;;;;;;;7.20;5.80;;;;;;;21.84;54.88;99115.56;1767832;81;27479;-87
2022/05/06 03:07:51;;;;;;;7.58;6.17;;;;;;;21.83;54.89;99118.15;1766164;81;25593;-87
2022/05/06 03:10:17;;;;;;;8.85;6.42;;;;;;;21.83;54.87;99123.73;1766138;81;25385;-87
2022/05/06 03:12:44;;;;;;;8.48;6.10;;;;;;;21.81;54.87;99115.73;1766314;81;26261;-88
2022/05/06 03:15:11;;;;;;;7.35;5.67;;;;;;;21.83;54.88;99119.55;1766046;81;25676;-87
2022/05/06 03:17:36;;;;;;;8.75;6.10;;;;;;;21.80;54.88;99113.33;1766413;81;27433;-87
2022/05/06 03:20:08;;;;;;;7.62;6.20;;;;;;;21.82;54.89;99117.95;1766347;81;25850;-87
2022/05/06 03:22:36;;;;;;;;;;;;;;;21.82;54.89;99122.13;1768277;81;25725;-88
2022/05/06 03:25:03;;;;;;;8.30;6.78;;;;;;;21.81;54.89;99118.53;1766510;81;26435;-87
2022/05/06 03:30:13;;;;;;;7.67;6.37;;;;;;;21.82;54.87;99117.95;1766051;81;25630;-87
2022/05/06 03:32:39;;;;;;;7.67;6.10;;;;;;;21.81;54.88;99115.73;1766318;81;25983;-87
2022/05/06 03:35:07;;;;;;;7.05;5.78;;;;;;;21.80;54.86;99111.94;1766248;81;25508;-87
2022/05/06 03:37:36;;;;;;;8.43;6.70;;;;;;;21.79;54.88;99110.34;1766374;81;25589;-88
2022/05/06 03:40:02;;;;;;;7.78;6.30;;;;;;;21.78;54.92;99110.10;1766154;81;25408;-88
2022/05/06 03:42:27;;;;;;;9.18;6.53;;;;;;;21.79;54.87;99111.13;1766463;81;27449;-87
2022/05/06 03:44:53;;;;;;;8.25;6.28;;;;;;;21.76;54.92;99109.09;1766378;81;25665;-88
2022/05/06 03:47:19;;;;;;;7.15;5.90;;;;;;;21.79;54.88;99111.73;1766350;81;25612;-86
2022/05/06 03:51:20;;;;;;;9.10;6.60;;;;;;;21.78;54.89;99112.89;1774012;80;26123;-87
2022/05/06 03:52:13;;;;;;;9.20;6.90;;;;;;;21.77;54.91;99119.08;1775180;80;25616;-87
2022/05/06 03:54:38;;;;;;;7.70;6.72;;;;;;;21.77;54.91;99120.48;1780587;79;28183;-87
2022/05/06 03:57:05;;;;;;;9.20;7.03;;;;;;;21.77;54.92;99133.03;1780427;79;25616;-88
2022/05/06 03:59:31;;;;;;;8.40;6.42;;;;;;;21.77;54.92;99135.00;1780662;80;25494;-86
2022/05/06 04:01:57;;;;;;;8.28;7.08;;;;;;;21.78;54.91;99139.39;1780493;79;25520;-88
2022/05/06 04:04:26;;;;;;;7.30;6.30;;;;;;;21.78;54.90;99134.63;1780685;80;25619;-88
2022/05/06 04:06:50;;;;;;;9.23;6.62;;;;;;;21.78;54.92;99138.00;1779567;80;25816;-87
2022/05/06 04:09:18;;;;;;;7.40;5.92;;;;;;;21.77;54.92;99140.58;1780542;79;25458;-87
2022/05/06 04:11:44;;;;;;;7.78;6.42;;;;;;;21.76;54.92;99142.56;1780356;80;25439;-87
2022/05/06 04:14:10;;;;;;;8.23;6.72;;;;;;;21.76;54.93;99140.37;1780650;80;25582;-87
2022/05/06 04:16:36;;;;;;;9.93;7.10;;;;;;;21.76;54.96;99144.56;1780210;80;25681;-87
2022/05/06 04:19:02;;;;;;;9.83;7.05;;;;;;;21.76;54.93;99137.59;1780467;80;27456;-88
2022/05/06 04:24:12;;;;;;;10.10;7.33;;;;;;;21.74;54.98;99136.55;1780241;80;25716;-87
2022/05/06 04:26:38;;;;;;;10.78;7.20;;;;;;;21.76;55.08;99138.38;1780507;79;25478;-86
2022/05/06 04:29:04;;;;;;;10.20;6.95;;;;;;;21.79;55.00;99141.02;1780615;80;25454;-87
2022/05/06 04:31:32;;;;;;;8.03;6.65;;;;;;;21.79;55.08;99143.81;1780615;80;28155;-86
2022/05/06 04:33:57;;;;;;;11.97;8.35;;;;;;;21.76;55.17;99140.37;1780258;80;25730;-86
2022/05/06 04:36:23;;;;;;;9.83;7.35;;;;;;;21.78;55.22;99143.58;1780588;79;25633;-86
2022/05/06 04:38:49;;;;;;;9.43;7.40;;;;;;;21.79;55.13;99149.39;1780471;80;26286;-86
2022/05/06 04:41:15;;;;;;;10.13;7.35;;;;;;;21.76;55.08;99148.14;1780631;79;25430;-86
2022/05/06 04:43:41;;;;;;;12.13;7.97;;;;;;;21.76;55.22;99148.75;1780517;80;28087;-86
2022/05/06 04:46:07;;;;;;;10.78;8.08;;;;;;;21.76;55.16;99150.14;1780340;79;25648;-86
2022/05/06 04:48:33;;;;;;;9.25;7.15;;;;;;;21.76;55.17;99151.53;1780871;79;25644;-86
2022/05/06 04:50:58;;;;;;;9.45;7.35;;;;;;;21.75;55.16;99149.30;1782982;80;25663;-86
2022/05/06 04:53:24;;;;;;;9.58;7.65;;;;;;;21.76;55.15;99157.90;1783131;80;25604;-86
2022/05/06 04:55:50;;;;;;;9.13;7.03;;;;;;;21.77;55.12;99154.53;1783054;80;27464;-87
2022/05/06 04:58:18;;;;;;;9.18;7.55;;;;;;;21.76;55.17;99159.91;1783026;79;25755;-87
2022/05/06 05:00:45;;;;;;;12.70;8.93;;;;;;;21.76;55.29;99165.48;1782657;80;25652;-86
2022/05/06 05:03:11;;;;;;;12.33;8.93;;;;;;;21.76;55.29;99170.45;1782934;80;25417;-86
2022/05/06 05:05:38;;;;;;;12.33;9.23;;;;;;;21.74;55.33;99172.80;1783074;80;25648;-86
2022/05/06 05:08:04;;;;;;;12.35;8.48;;;;;;;21.74;55.36;99170.59;1783169;79;27490;-86
2022/05/06 05:10:30;;;;;;;10.00;7.47;;;;;;;21.71;55.39;99171.34;1782979;80;25684;-87
2022/05/06 05:12:56;;;;;;;16.23;9.70;;;;;;;21.70;55.45;99174.72;1782957;79;25502;-87
2022/05/06 05:15:22;;;;;;;13.50;9.35;;;;;;;21.73;55.38;99187.13;1782898;80;25606;-86
2022/05/06 05:17:49;;;;;;;16.67;10.60;;;;;;;21.75;55.47;99188.93;1783176;79;25471;-86
2022/05/06 05:20:16;;;;;;;16.35;9.60;;;;;;;21.76;55.40;99187.80;1782693;80;28241;-87
2022/05/06 05:22:43;;;;;;;13.38;9.28;;;;;;;21.77;55.39;99188.81;1782946;79;25690;-86
2022/05/06 05:25:10;;;;;;;12.73;8.98;;;;;;;21.77;55.45;99186.03;1783145;79;25606;-87
2022/05/06 05:27:37;;;;;;;12.88;8.45;;;;;;;21.77;55.44;99193.58;1782982;79;26260;-86
2022/05/06 05:30:07;;;;;;;14.05;8.43;;;;;;;21.76;55.41;99189.98;1783095;80;25645;-86
2022/05/06 05:32:34;;;;;;;19.32;9.25;;;;;;;21.77;55.42;99183.81;1783457;79;27358;-86
2022/05/06 05:35:01;;;;;;;13.00;8.88;;;;;;;21.76;55.46;99187.19;1783120;79;25735;-86
2022/05/06 05:37:34;;;;;;;11.60;8.73;;;;;;;21.76;55.45;99189.98;1782791;80;25429;-86
2022/05/06 05:40:00;;;;;;;16.27;9.83;;;;;;;21.75;55.47;99193.11;1783199;79;25441;-86
2022/05/06 05:42:29;;;;;;;18.65;10.32;;;;;;;21.74;55.50;99199.88;1783226;80;25668;-87
2022/05/06 05:50:27;;;;;;;16.50;10.10;;;;;;;21.74;55.48;99209.06;1782917;79;25661;-87
2022/05/06 05:52:53;;;;;;;20.30;10.70;;;;;;;21.75;55.49;99211.24;1782721;79;25605;-86
2022/05/06 05:55:19;;;;;;;14.83;9.63;;;;;;;21.75;55.54;99215.42;1783310;80;25617;-87
2022/05/06 05:57:46;;;;;;;16.00;9.55;;;;;;;21.70;55.67;99215.16;1783218;80;27412;-87
2022/05/06 06:00:13;;;;;;;13.50;9.80;;;;;;;21.67;55.72;99203.36;1782754;80;25479;-87
2022/05/06 06:02:40;;;;;;;17.75;10.35;;;;;;;21.67;55.75;99214.52;1783215;80;25657;-87
2022/05/06 06:05:07;;;;;;;15.25;10.70;;;;;;;21.67;55.74;99213.94;1783058;80;26220;-87
2022/05/06 06:07:34;;;;;;;18.92;10.80;;;;;;;21.67;55.82;99209.75;1783191;80;25764;-87
2022/05/06 06:10:00;;;;;;;14.00;10.10;;;;;;;21.68;55.80;99209.95;1783104;80;27427;-87
2022/05/06 06:12:26;;;;;;;17.32;10.40;;;;;;;21.67;55.86;99214.52;1783197;80;25605;-87
2022/05/06 06:14:55;;;;;;;15.55;10.45;;;;;;;21.68;55.93;99221.72;1783114;80;25700;-87
2022/05/06 06:17:20;;;;;;;18.00;10.48;;;;;;;21.68;56.01;99220.33;1782255;80;25550;-87
2022/05/06 06:19:45;;;;;;;17.25;10.68;;;;;;;21.68;56.17;99224.52;1783391;80;25628;-87
2022/05/06 06:22:12;;;;;;;16.80;11.33;;;;;;;21.66;56.15;99223.49;1783256;80;28265;-87
2022/05/06 06:24:38;;;;;;;17.52;10.78;;;;;;;21.65;56.40;99230.23;1783176;80;25624;-87
2022/05/06 06:27:05;;;;;;;16.65;10.90;;;;;;;21.65;56.47;99232.23;1783183;80;25434;-87
2022/05/06 06:29:35;;;;;;;16.70;11.28;;;;;;;21.68;56.56;99234.27;1783150;80;25607;-87
2022/05/06 06:31:59;;;;;;;15.43;10.72;;;;;;;21.68;56.62;99238.45;1782490;80;25575;-88
2022/05/06 06:34:26;;;;;;;17.48;11.63;;;;;;;21.70;56.65;99238.86;1783262;80;27355;-87
2022/05/06 06:36:52;;;;;;;20.23;11.88;;;;;;;21.72;56.72;99244.07;1783242;80;25581;-87
2022/05/06 06:39:18;;;;;;;16.57;10.72;;;;;;;21.73;56.78;99245.70;1782980;80;25652;-87
2022/05/06 06:41:44;;;;;;;17.73;11.65;;;;;;;21.73;56.89;99246.48;1783228;80;25639;-88
2022/05/06 06:44:11;;;;;;;18.17;11.60;;;;;;;21.73;56.90;99249.27;1783278;80;25378;-87
2022/05/06 06:46:37;;;;;;;18.92;10.85;;;;;;;21.74;56.88;99254.27;1783143;80;27293;-87
2022/05/06 06:49:03;;;;;;;17.20;12.15;;;;;;;21.76;56.90;99254.13;1780853;79;25667;-87
2022/05/06 06:51:31;;;;;;;19.55;11.53;;;;;;;21.76;56.93;99252.73;1766904;81;25579;-87
2022/05/06 06:53:57;;;;;;;17.02;11.90;;;;;;;21.78;57.02;99255.16;1766457;81;25672;-87
2022/05/06 06:56:24;;;;;;;15.68;11.48;;;;;;;21.78;57.07;99255.97;1766470;81;25587;-87
2022/05/06 06:58:51;;;;;;;16.95;11.08;;;;;;;21.80;57.08;99263.38;1766318;80;28339;-87
2022/05/06 07:01:17;;;;;;;15.83;11.03;;;;;;;21.81;56.98;99265.56;1766330;81;25614;-87
2022/05/06 07:03:43;;;;;;;16.93;11.28;;;;;;;21.83;57.01;99263.79;1766464;81;25448;-86
2022/05/06 07:11:53;;;;;;;15.95;10.78;;;;;;;21.85;56.98;99260.05;1766071;81;25644;-86
2022/05/06 07:14:21;;;;;;;18.87;10.90;;;;;;;21.85;57.01;99254.47;1766158;81;25479;-86
2022/05/06 07:16:52;;;;;;;15.80;10.35;;;;;;;21.85;56.97;99260.05;1766014;81;25792;-85
2022/05/06 07:19:20;;;;;;;14.93;10.80;;;;;;;21.86;56.92;99265.25;1766387;81;25426;-86
2022/05/06 07:21:46;;;;;;;16.67;10.95;;;;;;;21.86;57.00;99265.25;1765979;81;25636;-85
2022/05/06 07:24:12;;;;;;;16.00;10.85;;;;;;;21.86;57.03;99269.44;1766309;81;28203;-85
2022/05/06 07:26:38;;;;;;;15.85;10.95;;;;;;;21.86;57.03;99262.46;1766271;81;25727;-85
2022/05/06 07:29:04;;;;;;;18.50;11.40;;;;;;;21.87;56.97;99259.88;1766316;81;25526;-85
2022/05/06 07:31:31;;;;;;;13.38;10.40;;;;;;;21.91;56.95;99267.70;1766324;81;25544;-85
2022/05/06 07:33:57;;;;;;;16.07;11.68;;;;;;;21.92;56.84;99267.12;1766082;81;25406;-85
2022/05/06 07:36:23;;;;;;;16.35;11.38;;;;;;;21.92;56.90;99262.35;1766283;81;27417;-85
2022/05/06 07:38:51;;;;;;;15.80;10.85;;;;;;;21.93;56.92;99268.72;1766281;81;25776;-85
2022/05/06 07:41:18;;;;;;;16.80;11.38;;;;;;;21.92;56.92;99265.14;1766013;81;25608;-85
2022/05/06 07:43:45;;;;;;;17.77;10.98;;;;;;;21.93;56.90;99266.74;1766265;81;26208;-85
2022/05/06 07:46:11;;;;;;;20.40;10.98;;;;;;;21.94;56.86;99266.16;1766279;81;25693;-85
2022/05/06 07:48:38;;;;;;;19.30;11.03;;;;;;;21.94;56.81;99268.95;1766253;81;27348;-85
2022/05/06 07:51:05;;;;;;;15.15;10.80;;;;;;;21.94;56.74;99269.73;1765920;80;25678;-85
2022/05/06 07:53:32;;;;;;;15.83;11.05;;;;;;;21.93;56.82;99273.72;1766284;81;25412;-85
2022/05/06 07:56:00;;;;;;;16.35;11.18;;;;;;;21.93;56.81;99273.72;1766193;81;26212;-84
2022/05/06 07:58:26;;;;;;;16.17;10.70;;;;;;;21.94;56.78;99278.72;1766023;81;25680;-85
2022/05/06 08:00:52;;;;;;;17.17;10.93;;;;;;;21.95;56.78;99276.13;1766410;81;28021;-85
2022/05/06 08:06:04;;;;;;;16.82;11.15;;;;;;;21.97;56.77;99277.16;1765971;81;25696;-85
2022/05/06 08:08:31;;;;;;;16.85;10.75;;;;;;;21.96;56.70;99281.92;1766186;81;25460;-85
2022/05/06 08:10:58;;;;;;;15.63;10.25;;;;;;;21.97;56.66;99281.34;1766095;81;25579;-84
2022/05/06 08:13:24;;;;;;;16.17;10.25;;;;;;;21.97;56.62;99289.70;1766363;81;27608;-85
2022/05/06 08:15:52;;;;;;;17.12;10.80;;;;;;;21.97;56.55;99291.10;1765905;81;25144;-85
2022/05/06 08:18:18;;;;;;;18.62;10.50;;;;;;;21.98;56.55;99286.55;1765963;81;25629;-85
2022/05/06 08:20:46;;;;;;;17.98;10.50;;;;;;;22.00;56.51;99285.59;1766160;81;25577;-85
2022/05/06 08:23:13;;;;;;;19.50;10.85;;;;;;;21.99;56.49;99285.35;1766004;81;25616;-85
2022/05/06 08:25:40;;;;;;;16.85;10.78;;;;;;;21.99;56.48;99290.93;1765954;81;27405;-85
2022/05/06 08:28:07;;;;;;;16.67;10.90;;;;;;;22.00;56.45;99295.93;1765948;81;25616;-84
2022/05/06 08:30:33;;;;;;;17.98;10.75;;;;;;;22.00;56.37;99288.95;1766363;81;25756;-85
2022/05/06 08:32:59;;;;;;;16.48;10.55;;;;;;;22.01;56.33;99280.20;1766379;81;25418;-85
2022/05/06 08:35:26;;;;;;;15.38;10.50;;;;;;;22.02;56.30;99285.21;1766255;81;25167;-86
2022/05/06 08:37:52;;;;;;;18.42;10.48;;;;;;;22.02;56.29;99281.81;1766364;81;27466;-85
2022/05/06 08:40:29;;;;;;;14.95;9.65;;;;;;;22.00;56.27;99281.41;1766311;81;25692;-85
2022/05/06 08:42:56;;;;;;;13.10;10.00;;;;;;;22.03;56.21;99288.20;1766097;81;25642;-85
2022/05/06 08:50:58;;;;;;;15.98;10.15;;;;;;;22.02;56.12;99293.58;1766029;79;25592;-85
2022/05/06 08:53:27;;;;;;;13.50;9.20;;;;;;;21.96;56.21;99290.28;1766017;81;25904;-85
2022/05/06 08:55:56;;;;;;;14.28;10.10;;;;;;;21.98;56.21;99296.89;1766337;81;25447;-85
2022/05/06 08:58:25;;;;;;;12.78;9.98;;;;;;;21.98;56.21;99303.28;1766194;81;26253;-85
2022/05/06 09:01:05;;;;;;;14.83;9.67;;;;;;;21.96;56.28;99300.05;1766663;81;25660;-85
2022/05/06 09:03:32;;;;;;;14.20;9.60;;;;;;;21.93;56.23;99303.59;1762840;81;27456;-85
2022/05/06 09:05:58;;;;;;;15.35;10.03;;;;;;;21.94;55.93;99303.22;1766274;81;25628;-85
2022/05/06 09:08:43;;;;;;;15.80;9.95;;;;;;;21.92;55.71;99302.81;1766467;81;25485;-85
2022/05/06 09:11:09;;;;;;;18.82;9.73;;;;;;;21.94;55.49;99306.01;1765844;81;25485;-85
2022/05/06 09:13:55;;;;;;;13.45;9.45;;;;;;;21.93;55.29;99310.57;1766605;81;25745;-85
2022/05/06 09:16:42;;;;;;;16.80;10.10;;;;;;;21.91;55.16;99308.16;1766144;81;27386;-85
2022/05/06 09:19:15;;;;;;;14.70;10.20;;;;;;;21.92;55.02;99313.16;1766029;81;25644;-85
2022/05/06 09:22:14;;;;;;;12.78;9.20;;;;;;;21.89;54.91;99310.53;1766503;81;25665;-85
2022/05/06 09:24:44;;;;;;;13.88;9.75;;;;;;;21.89;54.96;99318.91;1766109;81;25700;-85
2022/05/06 09:27:16;;;;;;;14.35;9.93;;;;;;;21.89;54.97;99319.48;1766318;81;25686;-85
2022/05/06 09:29:51;;;;;;;14.60;9.90;;;;;;;21.87;55.06;99318.47;1766590;81;27365;-85
2022/05/06 09:32:28;;;;;;;14.85;9.45;;;;;;;21.86;55.09;99326.62;1766062;81;25885;-85
2022/05/06 09:35:13;;;;;;;14.07;9.80;;;;;;;21.85;55.17;99323.63;1766624;81;25457;-85
2022/05/06 09:37:46;;;;;;;12.80;9.50;;;;;;;21.86;55.15;99321.63;1766468;81;26175;-85
2022/05/06 09:40:18;;;;;;;16.02;10.38;;;;;;;21.86;55.25;99325.23;1766343;81;25684;-85
2022/05/06 09:42:57;;;;;;;12.05;9.05;;;;;;;21.85;55.35;99314.45;1766523;81;27434;-85
2022/05/06 09:45:39;;;;;;;12.45;9.30;;;;;;;21.84;55.40;99317.03;1766054;81;25443;-85
2022/05/06 09:48:14;;;;;;;14.85;9.08;;;;;;;21.84;55.40;99320.61;1766327;81;25514;-85
2022/05/06 09:50:48;;;;;;;13.93;9.73;;;;;;;21.83;55.28;99314.00;1766295;80;25634;-85
2022/05/06 09:53:18;;;;;;;14.53;9.58;;;;;;;21.81;55.07;99315.77;1766514;81;25451;-86
2022/05/06 09:55:46;;;;;;;15.75;9.60;;;;;;;21.81;54.81;99319.95;1766458;81;27515;-86
2022/05/06 09:58:15;;;;;;;14.23;9.75;;;;;;;21.80;54.73;99318.36;1766353;81;25609;-86
2022/05/06 10:00:43;;;;;;;16.35;8.93;;;;;;;21.79;54.78;99316.76;1766463;81;25700;-86
2022/05/06 10:03:10;;;;;;;13.38;9.83;;;;;;;21.79;54.90;99314.75;1766059;81;25544;-86
2022/05/06 10:05:38;;;;;;;12.88;9.13;;;;;;;21.79;54.93;99313.36;1766477;81;25706;-86
2022/05/06 10:08:10;;;;;;;14.07;9.18;;;;;;;21.78;55.01;99309.55;1766531;81;27401;-85
2022/05/06 10:10:41;;;;;;;15.72;9.93;;;;;;;21.80;55.07;99314.17;1766119;81;25593;-86
2022/05/06 10:13:13;;;;;;;;;;;;;;;21.80;55.00;99308.02;1768956;81;25595;-86
2022/05/06 10:15:40;;;;;;;15.65;9.28;;;;;;;21.82;55.15;99309.03;1766558;80;25547;-85
2022/05/06 10:18:07;;;;;;;16.37;9.85;;;;;;;21.79;55.00;99304.98;1766468;81;25618;-86
2022/05/06 10:20:45;;;;;;;17.90;10.10;;;;;;;21.78;55.07;99306.18;1766066;81;26813;-86
2022/05/06 10:23:12;;;;;;;17.60;10.82;;;;;;;21.78;55.00;99305.36;1765663;81;25443;-86
2022/05/06 10:25:48;;;;;;;17.85;9.65;;;;;;;21.79;54.99;99309.78;1766347;81;25429;-86
2022/05/06 10:34:27;;;;;;;18.45;9.63;;;;;;;21.79;55.01;99298.02;1766093;81;25596;-85
2022/05/06 10:36:55;;;;;;;16.70;11.12;;;;;;;21.78;55.24;99292.81;1765726;81;25790;-85
2022/05/06 10:39:36;;;;;;;14.25;9.83;;;;;;;21.77;55.34;99295.39;1766347;81;25672;-86
2022/05/06 10:42:17;;;;;;;13.28;9.68;;;;;;;21.76;55.45;99290.39;1766318;81;25693;-85
2022/05/06 10:44:51;;;;;;;15.80;10.40;;;;;;;21.78;55.44;99292.23;1766120;81;25412;-87
2022/05/06 10:47:23;;;;;;;17.92;10.95;;;;;;;21.80;55.46;99285.70;1766427;81;27429;-87
2022/05/06 10:49:51;;;;;;;17.50;10.53;;;;;;;21.81;55.29;99286.48;1762410;81;25733;-87
2022/05/06 10:52:28;;;;;;;15.32;10.53;;;;;;;21.81;55.13;99280.91;1781163;79;25636;-87
2022/05/06 10:55:00;;;;;;;17.65;11.28;;;;;;;21.81;55.04;99281.72;1782979;79;25477;-88
2022/05/06 10:57:29;;;;;;;18.27;12.07;;;;;;;21.81;54.98;99284.51;1782912;80;25458;-87
2022/05/06 11:00:03;;;;;;;17.98;11.57;;;;;;;21.81;54.97;99286.48;1783044;80;28353;-87
2022/05/06 11:02:35;;;;;;;19.32;11.88;;;;;;;21.80;55.02;99279.30;1782589;80;25773;-87
2022/05/06 11:05:17;;;;;;;23.87;12.35;;;;;;;21.80;55.01;99275.13;1783118;80;25710;-87
2022/05/06 11:07:46;;;;;;;20.43;12.88;;;;;;;21.81;54.98;99278.11;1783010;80;26175;-87
2022/05/06 11:10:22;;;;;;;20.32;12.82;;;;;;;21.81;54.95;99280.33;1783095;80;25406;-87
2022/05/06 11:12:51;;;;;;;19.15;13.15;;;;;;;21.82;54.88;99279.74;1783257;80;27342;-88
2022/05/06 11:15:32;;;;;;;21.15;13.00;;;;;;;21.81;54.83;99278.93;1783362;80;25677;-88
2022/05/06 11:18:01;;;;;;;18.10;13.32;;;;;;;21.81;54.77;99273.35;1783279;80;25586;-89
2022/05/06 11:20:35;;;;;;;24.40;13.43;;;;;;;21.79;54.69;99271.52;1783193;80;25600;-89
2022/05/06 11:23:11;;;;;;;23.25;13.78;;;;;;;21.78;54.71;99269.91;1783279;80;25463;-88
2022/05/06 11:25:41;;;;;;;18.27;13.20;;;;;;;21.80;54.64;99282.09;1782947;80;27367;-88
2022/05/06 11:28:17;;;;;;;22.90;13.80;;;;;;;21.80;54.54;99283.48;1782993;80;33238;-88
2022/05/06 11:30:47;;;;;;;21.00;13.32;;;;;;;21.78;54.54;99287.23;1783098;80;25606;-88
2022/05/06 11:33:24;;;;;;;21.68;13.55;;;;;;;21.77;54.66;99292.02;1783141;80;25713;-88
2022/05/06 11:36:01;;;;;;;23.47;13.18;;;;;;;21.77;54.78;99298.19;1783166;80;25474;-89
2022/05/06 11:38:39;;;;;;;25.30;14.73;;;;;;;21.77;54.87;99301.79;1781029;80;25975;-88
2022/05/06 11:41:14;;;;;;;21.37;13.55;;;;;;;21.75;54.93;99301.31;1783037;80;25657;-88
2022/05/06 11:43:42;;;;;;;21.50;13.75;;;;;;;21.74;55.01;99303.08;1754563;80;25547;-88
2022/05/06 11:49:07;;;;;;;20.20;13.68;;;;;;;21.77;55.04;99306.55;1782742;80;25609;-88
2022/05/06 11:51:43;;;;;;;19.25;13.15;;;;;;;21.76;55.10;99308.53;1775164;79;27544;-89
2022/05/06 11:54:10;;;;;;;23.75;12.73;;;;;;;21.76;55.27;99307.13;1765916;81;25846;-88
2022/05/06 11:56:39;;;;;;;19.12;12.37;;;;;;;21.73;55.29;99305.67;1766571;81;25721;-88
2022/05/06 11:59:06;;;;;;;17.98;12.35;;;;;;;21.75;55.37;99306.08;1766237;81;25706;-88
2022/05/06 12:01:35;;;;;;;20.80;12.93;;;;;;;21.76;55.45;99306.34;1766317;81;25457;-88
2022/05/06 12:04:04;;;;;;;19.77;12.23;;;;;;;21.77;55.52;99300.97;1766044;81;27412;-89
2022/05/06 12:06:37;;;;;;;17.52;12.10;;;;;;;21.76;55.62;99308.53;1766163;81;25618;-88
2022/05/06 12:09:16;;;;;;;16.52;11.93;;;;;;;21.75;55.72;99311.08;1765755;81;25476;-88
2022/05/06 12:11:43;;;;;;;;;;;;;;;21.74;55.76;99304.48;1768683;81;25592;-88
2022/05/06 12:14:15;;;;;;;16.32;12.00;;;;;;;21.72;55.82;99302.64;1766334;81;25593;-88